createdAt,value
2019-05-03T00:04:38.499Z,7.85
2019-05-03T00:09:42.504Z,8.85
2019-05-03T00:14:47.380Z,9.48
2019-05-03T00:19:49.582Z,9.50
2019-05-03T00:25:03.096Z,9.13
2019-05-03T00:29:55.915Z,10.10
2019-05-03T00:35:01.796Z,9.70
2019-05-03T00:40:05.818Z,10.68
2019-05-03T00:45:08.437Z,11.53
2019-05-03T00:50:12.060Z,12.68
2019-05-03T00:55:18.515Z,11.55
2019-05-03T01:00:18.846Z,14.30
2019-05-03T01:05:22.675Z,13.53
2019-05-03T01:10:25.388Z,14.90
2019-05-03T01:15:37.485Z,15.32
2019-05-03T01:20:39.864Z,15.50
2019-05-03T01:25:42.919Z,15.48
2019-05-03T01:30:45.586Z,16.05
2019-05-03T01:35:47.747Z,15.58
2019-05-03T01:40:49.917Z,16.07
2019-05-03T01:45:52.146Z,15.95
2019-05-03T01:51:22.769Z,15.55
2019-05-03T01:56:24.946Z,15.93
2019-05-03T02:01:55.470Z,14.87
2019-05-03T02:06:57.871Z,12.20
2019-05-03T02:12:02.003Z,11.08
2019-05-03T02:17:04.150Z,8.78
2019-05-03T02:22:06.302Z,10.23
2019-05-03T02:27:08.574Z,9.38
2019-05-03T02:32:13.317Z,8.28
2019-05-03T02:37:15.330Z,7.60
2019-05-03T02:42:17.767Z,7.05
2019-05-03T02:47:40.597Z,7.78
2019-05-03T02:52:43.435Z,6.62
2019-05-03T02:57:47.039Z,6.60
2019-05-03T03:02:49.608Z,6.58
2019-05-03T03:07:52.582Z,6.17
2019-05-03T03:12:58.334Z,6.92
2019-05-03T03:18:00.509Z,6.80
2019-05-03T03:23:02.825Z,6.53
2019-05-03T03:28:07.715Z,5.90
2019-05-03T03:33:17.142Z,5.40
2019-05-03T03:38:18.021Z,5.28
2019-05-03T03:43:21.599Z,5.95
2019-05-03T03:48:26.502Z,6.20
2019-05-03T03:53:31.164Z,5.47
2019-05-03T03:58:35.925Z,6.08
2019-05-03T04:03:37.563Z,6.85
2019-05-03T04:08:40.217Z,6.08
2019-05-03T04:13:45.240Z,5.97
2019-05-03T04:19:07.350Z,5.67
2019-05-03T04:24:09.549Z,6.08
2019-05-03T04:29:12.782Z,6.67
2019-05-03T04:34:16.181Z,7.33
2019-05-03T04:39:27.789Z,7.12
2019-05-03T04:44:31.779Z,7.87
2019-05-03T04:49:36.856Z,8.30
2019-05-03T04:54:45.270Z,9.10
2019-05-03T04:59:47.537Z,9.43
2019-05-03T05:04:49.603Z,9.80
2019-05-03T05:09:51.790Z,9.83
2019-05-03T05:14:56.113Z,8.45
2019-05-03T05:20:05.334Z,9.83
2019-05-03T05:25:11.657Z,8.85
2019-05-03T05:30:14.906Z,9.88
2019-05-03T05:35:17.199Z,10.05
2019-05-03T05:40:22.028Z,13.55
2019-05-03T05:45:24.666Z,15.08
2019-05-03T05:50:34.705Z,14.58
2019-05-03T05:55:59.246Z,13.80
2019-05-03T06:01:05.888Z,13.62
2019-05-03T06:06:10.801Z,11.22
2019-05-03T06:11:20.574Z,13.28
2019-05-03T06:16:35.724Z,12.53
2019-05-03T06:21:55.311Z,11.80
2019-05-03T06:27:02.672Z,10.65
2019-05-03T06:32:23.011Z,10.48
2019-05-03T06:37:27.856Z,9.70
2019-05-03T06:42:30.027Z,8.48
2019-05-03T06:47:32.505Z,7.87
2019-05-03T06:52:35.226Z,8.00
2019-05-03T06:57:44.699Z,6.47
2019-05-03T07:02:55.104Z,6.20
2019-05-03T07:08:15.637Z,6.20
2019-05-03T07:13:17.741Z,7.20
2019-05-03T07:18:19.904Z,6.37
2019-05-03T07:23:22.012Z,7.50
2019-05-03T07:28:24.782Z,7.42
2019-05-03T07:33:32.207Z,7.90
2019-05-03T07:38:35.429Z,7.35
2019-05-03T07:43:37.689Z,7.90
2019-05-03T07:48:39.908Z,8.15
2019-05-03T07:53:42.102Z,8.58
2019-05-03T07:59:00.045Z,7.70
2019-05-03T08:03:55.143Z,8.33
2019-05-03T08:08:57.523Z,8.15
2019-05-03T08:13:59.678Z,7.83
2019-05-03T08:19:01.859Z,7.47
2019-05-03T08:24:04.552Z,7.33
2019-05-03T08:29:15.984Z,6.75
2019-05-03T08:34:17.494Z,6.15
2019-05-03T08:39:19.616Z,6.15
2019-05-03T08:44:21.769Z,7.03
2019-05-03T08:49:25.476Z,6.80
2019-05-03T08:54:27.679Z,5.58
2019-05-03T08:59:32.646Z,6.53
2019-05-03T09:04:37.864Z,6.28
2019-05-03T09:10:13.563Z,5.72
2019-05-03T09:15:16.313Z,4.90
2019-05-03T09:20:18.516Z,4.65
2019-05-03T09:25:20.674Z,4.92
2019-05-03T09:30:25.103Z,5.08
2019-05-03T09:35:32.890Z,4.62
2019-05-03T09:40:31.417Z,5.28
2019-05-03T09:45:35.274Z,5.05
2019-05-03T09:50:37.736Z,5.05
2019-05-03T09:55:40.517Z,5.17
2019-05-03T10:00:44.644Z,5.25
2019-05-03T10:05:46.846Z,5.08
2019-05-03T10:11:06.859Z,5.10
2019-05-03T10:16:09.073Z,5.10
2019-05-03T10:21:11.266Z,4.58
2019-05-03T10:26:14.960Z,4.80
2019-05-03T10:31:17.682Z,5.70
2019-05-03T10:36:20.180Z,4.70
2019-05-03T10:41:22.311Z,4.75
2019-05-03T10:46:25.089Z,5.53
2019-05-03T10:51:29.776Z,4.62
2019-05-03T10:56:55.875Z,4.55
2019-05-03T11:02:20.781Z,4.62
2019-05-03T11:07:22.972Z,5.22
2019-05-03T11:12:26.072Z,3.65
2019-05-03T11:17:28.173Z,3.70
2019-05-03T11:22:30.341Z,3.65
2019-05-03T11:27:39.212Z,3.47
2019-05-03T11:32:52.543Z,3.83
2019-05-03T11:38:09.545Z,3.60
2019-05-03T11:43:11.886Z,3.90
2019-05-03T11:48:14.795Z,3.52
2019-05-03T11:53:16.996Z,3.52
2019-05-03T11:58:21.255Z,3.22
2019-05-03T12:03:30.091Z,3.02
2019-05-03T12:08:34.474Z,3.35
2019-05-03T12:13:36.573Z,3.30
2019-05-03T12:18:48.842Z,3.30
2019-05-03T12:23:45.580Z,3.50
2019-05-03T12:28:47.956Z,3.00
2019-05-03T12:33:50.791Z,3.42
2019-05-03T12:38:54.801Z,2.80
2019-05-03T12:43:57.269Z,3.22
2019-05-03T12:48:59.502Z,3.10
2019-05-03T12:54:01.879Z,2.92
2019-05-03T12:59:09.506Z,2.77
2019-05-03T13:04:15.297Z,2.58
2019-05-03T13:09:17.567Z,2.70
2019-05-03T13:14:19.783Z,2.70
2019-05-03T13:19:22.234Z,3.10
2019-05-03T13:24:25.978Z,2.55
2019-05-03T13:29:28.245Z,2.60
2019-05-03T13:34:30.649Z,2.83
2019-05-03T13:39:32.738Z,2.70
2019-05-03T13:44:35.577Z,2.98
2019-05-03T13:49:38.028Z,3.25
2019-05-03T13:54:40.305Z,3.02
2019-05-03T13:59:44.689Z,2.95
2019-05-03T14:04:52.390Z,2.95
2019-05-03T14:09:50.700Z,2.67
2019-05-03T14:14:55.642Z,2.77
2019-05-03T14:20:08.383Z,3.15
2019-05-03T14:25:10.481Z,2.72
2019-05-03T14:30:14.607Z,2.27
2019-05-03T14:35:16.876Z,2.77
2019-05-03T14:40:19.100Z,3.27
2019-05-03T14:45:21.233Z,2.80
2019-05-03T14:50:25.450Z,2.98
2019-05-03T14:55:39.543Z,2.70
2019-05-03T15:00:48.995Z,2.87
2019-05-03T15:05:51.180Z,2.42
2019-05-03T15:10:54.692Z,2.50
2019-05-03T15:15:56.909Z,2.77
2019-05-03T15:20:59.317Z,3.02
2019-05-03T15:26:01.472Z,2.80
2019-05-03T15:31:04.593Z,2.70
2019-05-03T15:36:07.144Z,2.27
2019-05-03T15:41:09.348Z,2.75
2019-05-03T15:46:37.351Z,2.47
2019-05-03T15:51:39.578Z,2.50
2019-05-03T15:56:41.798Z,2.98
2019-05-03T16:01:44.007Z,2.65
2019-05-03T16:06:46.519Z,2.70
2019-05-03T16:11:48.963Z,2.50
2019-05-03T16:16:54.812Z,2.92
2019-05-03T16:21:57.189Z,2.50
2019-05-03T16:27:24.716Z,2.42
2019-05-03T16:32:27.041Z,2.67
2019-05-03T16:37:29.317Z,2.40
2019-05-03T16:42:31.542Z,2.60
2019-05-03T16:47:35.445Z,2.83
2019-05-03T16:52:37.821Z,2.72
2019-05-03T16:57:40.421Z,3.02
2019-05-03T17:02:44.319Z,2.80
2019-05-03T17:07:52.459Z,3.15
2019-05-03T17:12:56.879Z,3.05
2019-05-03T17:17:58.707Z,3.45
2019-05-03T17:23:00.890Z,3.30
2019-05-03T17:28:04.877Z,3.45
2019-05-03T17:33:07.373Z,2.98
2019-05-03T17:38:10.011Z,3.27
2019-05-03T17:43:19.768Z,3.20
2019-05-03T17:48:21.998Z,3.37
2019-05-03T17:53:54.742Z,3.47
2019-05-03T17:59:25.707Z,3.40
2019-05-03T18:04:49.903Z,3.72
2019-05-03T18:09:52.397Z,3.52
2019-05-03T18:14:55.410Z,4.00
2019-05-03T18:19:57.808Z,4.00
2019-05-03T18:25:00.143Z,3.33
2019-05-03T18:30:08.846Z,3.25
2019-05-03T18:35:12.036Z,3.33
2019-05-03T18:40:14.265Z,3.65
2019-05-03T18:45:21.965Z,3.65
2019-05-03T18:50:24.608Z,3.12
2019-05-03T18:55:26.674Z,3.70
2019-05-03T19:00:29.470Z,3.25
2019-05-03T19:05:34.850Z,3.40
2019-05-03T19:10:44.645Z,4.53
2019-05-03T19:15:47.165Z,4.12
2019-05-03T19:20:49.552Z,5.03
2019-05-03T19:25:51.661Z,4.65
2019-05-03T19:30:54.912Z,4.55
2019-05-03T19:36:00.175Z,4.33
2019-05-03T19:41:01.610Z,4.10
2019-05-03T19:46:04.567Z,4.50
2019-05-03T19:51:07.910Z,4.40
2019-05-03T19:56:10.307Z,5.22
2019-05-03T20:01:34.955Z,4.83
2019-05-03T20:06:45.221Z,5.33
2019-05-03T20:11:47.470Z,5.35
2019-05-03T20:16:49.637Z,5.30
2019-05-03T20:21:52.047Z,5.50
2019-05-03T20:26:54.300Z,5.58
2019-05-03T20:31:56.766Z,5.65
2019-05-03T20:36:59.022Z,5.65
2019-05-03T20:42:01.229Z,6.22
2019-05-03T20:47:25.234Z,5.97
2019-05-03T20:52:27.597Z,6.08
2019-05-03T20:57:30.184Z,5.87
2019-05-03T21:02:34.383Z,6.33
2019-05-03T21:08:00.705Z,6.30
2019-05-03T21:20:25.398Z,6.45
2019-05-03T21:26:12.874Z,7.50
2019-05-03T21:31:10.895Z,6.97
2019-05-03T21:36:15.071Z,7.83
2019-05-03T21:41:17.432Z,8.70
2019-05-03T21:46:26.835Z,8.15
2019-05-03T21:51:29.027Z,8.48
2019-05-03T21:56:31.693Z,10.60
2019-05-03T22:01:37.513Z,8.85
2019-05-03T22:06:49.138Z,8.98
2019-05-03T22:12:11.224Z,9.25
2019-05-03T22:17:44.660Z,9.30
2019-05-03T22:22:56.721Z,9.35
2019-05-03T22:29:10.304Z,10.75
2019-05-03T22:34:25.490Z,10.40
2019-05-03T22:39:42.078Z,10.85
2019-05-03T22:45:27.491Z,10.28
2019-05-03T22:50:36.218Z,10.88
2019-05-03T22:55:48.618Z,9.88
2019-05-03T23:01:12.273Z,10.35
2019-05-03T23:06:28.130Z,10.80
2019-05-03T23:12:05.538Z,10.10
2019-05-03T23:23:51.954Z,12.75
2019-05-03T23:29:16.167Z,12.50
2019-05-03T23:34:41.816Z,12.35
2019-05-03T23:40:12.056Z,13.95
2019-05-03T23:45:27.964Z,14.20
2019-05-03T23:50:51.762Z,14.80
2019-05-03T23:56:21.133Z,13.70
